createdAt,value
2023-05-14T00:02:25.179Z,98756.25
2023-05-14T00:05:30.941Z,98751.47
2023-05-14T00:08:40.194Z,98750.00
2023-05-14T00:11:46.311Z,98745.53
2023-05-14T00:14:52.824Z,98754.25
2023-05-14T00:17:58.648Z,98752.94
2023-05-14T00:21:05.295Z,98743.41
2023-05-14T00:24:13.635Z,98746.34
2023-05-14T00:27:20.029Z,98742.75
2023-05-14T00:30:25.979Z,98743.38
2023-05-14T00:33:33.879Z,98737.41
2023-05-14T00:36:39.606Z,98738.22
2023-05-14T00:39:48.634Z,98741.50
2023-05-14T00:42:54.597Z,98745.94
2023-05-14T00:46:01.297Z,98744.81
2023-05-14T00:49:07.924Z,98748.66
2023-05-14T00:52:15.431Z,98742.41
2023-05-14T00:55:26.052Z,98744.53
2023-05-14T00:58:34.598Z,98749.47
2023-05-14T01:01:40.885Z,98757.91
2023-05-14T01:04:47.796Z,98752.69
2023-05-14T01:08:10.758Z,98751.69
2023-05-14T01:11:28.254Z,98759.59
2023-05-14T01:14:48.179Z,98755.19
2023-05-14T01:18:00.819Z,98755.50
2023-05-14T01:21:06.623Z,98758.47
2023-05-14T01:24:15.610Z,98754.38
2023-05-14T01:27:33.043Z,98757.50
2023-05-14T01:30:45.053Z,98747.00
2023-05-14T01:33:53.477Z,98752.25
2023-05-14T01:37:01.155Z,98749.63
2023-05-14T01:40:13.162Z,98753.91
2023-05-14T01:43:20.942Z,98747.81
2023-05-14T01:46:27.229Z,98744.88
2023-05-14T01:49:33.771Z,98746.34
2023-05-14T01:52:39.448Z,98738.16
2023-05-14T01:55:48.426Z,98735.53
2023-05-14T01:58:55.785Z,98732.91
2023-05-14T02:02:02.734Z,98739.28
2023-05-14T02:05:09.789Z,98734.19
2023-05-14T02:08:16.184Z,98735.25
2023-05-14T02:11:24.491Z,98731.41
2023-05-14T02:14:31.301Z,98736.97
2023-05-14T02:17:37.407Z,98728.72
2023-05-14T02:20:43.753Z,98738.53
2023-05-14T02:23:49.727Z,98735.38
2023-05-14T02:27:01.242Z,98733.75
2023-05-14T02:30:08.166Z,98734.75
2023-05-14T02:33:14.731Z,98731.84
2023-05-14T02:36:20.357Z,98728.25
2023-05-14T02:39:26.883Z,98723.88
2023-05-14T02:42:35.194Z,98719.94
2023-05-14T02:45:41.655Z,98725.19
2023-05-14T02:48:47.154Z,98716.03
2023-05-14T02:51:54.490Z,98711.63
2023-05-14T02:55:00.165Z,98710.84
2023-05-14T02:58:09.073Z,98709.69
2023-05-14T03:01:14.750Z,98709.34
2023-05-14T03:04:21.756Z,98698.00
2023-05-14T03:07:27.505Z,98702.91
2023-05-14T03:10:33.979Z,98702.38
2023-05-14T03:13:42.155Z,98693.47
2023-05-14T03:16:48.881Z,98692.81
2023-05-14T03:19:54.536Z,98694.97
2023-05-14T03:23:01.037Z,98694.81
2023-05-14T03:26:06.790Z,98691.59
2023-05-14T03:29:18.259Z,98688.50
2023-05-14T03:32:24.136Z,98693.41
2023-05-14T03:35:30.539Z,98690.13
2023-05-14T03:38:36.243Z,98681.94
2023-05-14T03:41:44.026Z,98683.41
2023-05-14T03:44:52.342Z,98691.28
2023-05-14T03:47:58.813Z,98683.75
2023-05-14T03:51:05.167Z,98681.13
2023-05-14T03:54:11.678Z,98683.72
2023-05-14T03:57:17.257Z,98685.47
2023-05-14T04:00:26.837Z,98686.47
2023-05-14T04:03:32.814Z,98690.88
2023-05-14T04:06:39.356Z,98685.81
2023-05-14T04:09:44.861Z,98684.66
2023-05-14T04:12:51.737Z,98689.94
2023-05-14T04:16:00.701Z,98691.88
2023-05-14T04:19:07.766Z,98685.94
2023-05-14T04:22:14.766Z,98688.97
2023-05-14T04:25:21.655Z,98691.56
2023-05-14T04:28:27.569Z,98688.47
2023-05-14T04:31:36.763Z,98684.22
2023-05-14T04:34:42.700Z,98675.75
2023-05-14T04:37:49.393Z,98679.91
2023-05-14T04:40:55.096Z,98685.69
2023-05-14T04:44:04.219Z,98681.44
2023-05-14T04:47:12.782Z,98678.84
2023-05-14T04:50:19.552Z,98678.69
2023-05-14T04:53:25.547Z,98690.88
2023-05-14T04:56:32.070Z,98679.34
2023-05-14T04:59:37.681Z,98677.41
2023-05-14T05:02:46.849Z,98676.09
2023-05-14T05:05:53.092Z,98675.41
2023-05-14T05:09:01.326Z,98671.81
2023-05-14T05:12:09.225Z,98669.34
2023-05-14T05:15:15.700Z,98674.63
2023-05-14T05:18:23.864Z,98671.00
2023-05-14T05:21:30.742Z,98675.75
2023-05-14T05:24:36.391Z,98675.59
2023-05-14T05:27:42.808Z,98673.28
2023-05-14T05:30:48.624Z,98682.63
2023-05-14T05:33:57.815Z,98662.88
2023-05-14T05:37:03.486Z,98667.13
2023-05-14T05:40:14.190Z,98672.16
2023-05-14T05:43:19.866Z,98670.84
2023-05-14T05:46:26.454Z,98677.53
2023-05-14T05:49:34.653Z,98677.00
2023-05-14T05:52:42.062Z,98681.94
2023-05-14T05:55:48.120Z,98681.78
2023-05-14T05:58:54.667Z,98680.88
2023-05-14T06:02:00.436Z,98674.38
2023-05-14T06:05:11.768Z,98666.19
2023-05-14T06:08:17.517Z,98664.00
2023-05-14T06:11:23.930Z,98659.91
2023-05-14T06:14:29.576Z,98658.16
2023-05-14T06:17:36.045Z,98655.88
2023-05-14T06:20:44.366Z,98658.75
2023-05-14T06:23:50.939Z,98657.66
2023-05-14T06:26:56.749Z,98655.94
2023-05-14T06:30:03.245Z,98649.91
2023-05-14T06:33:08.955Z,98647.44
2023-05-14T06:36:17.968Z,98638.50
2023-05-14T06:39:24.162Z,98640.34
2023-05-14T06:42:30.597Z,98650.06
2023-05-14T06:45:37.388Z,98656.63
2023-05-14T06:48:43.906Z,98660.53
2023-05-14T06:51:52.583Z,98651.56
2023-05-14T06:54:59.026Z,98645.38
2023-05-14T06:58:05.003Z,98640.47
2023-05-14T07:01:11.741Z,98635.31
2023-05-14T07:04:17.689Z,98641.75
2023-05-14T07:07:26.839Z,98646.16
2023-05-14T07:10:32.946Z,98644.69
2023-05-14T07:13:39.349Z,98645.94
2023-05-14T07:16:47.131Z,98643.22
2023-05-14T07:19:55.706Z,98648.22
2023-05-14T07:23:04.023Z,98652.13
2023-05-14T07:26:11.654Z,98662.69
2023-05-14T07:29:17.216Z,98657.91
2023-05-14T07:32:25.281Z,98655.47
2023-05-14T07:35:34.621Z,98652.63
2023-05-14T07:38:44.525Z,98652.09
2023-05-14T07:41:50.365Z,98650.94
2023-05-14T07:44:56.830Z,98652.56
2023-05-14T07:48:02.518Z,98633.59
2023-05-14T07:51:08.954Z,98636.91
2023-05-14T07:54:17.151Z,98633.53
2023-05-14T07:57:23.675Z,98633.38
2023-05-14T08:00:29.390Z,98630.56
2023-05-14T08:03:36.245Z,98620.34
2023-05-14T08:06:42.208Z,98608.13
2023-05-14T08:09:51.174Z,98608.13
2023-05-14T08:12:56.869Z,98603.78
2023-05-14T08:16:03.281Z,98600.34
2023-05-14T08:19:09.018Z,98595.63
2023-05-14T08:22:15.500Z,98584.16
2023-05-14T08:25:23.733Z,98586.75
2023-05-14T08:28:31.082Z,98578.38
2023-05-14T08:31:36.736Z,98576.09
2023-05-14T08:34:44.097Z,98564.81
2023-05-14T08:37:50.446Z,98561.41
2023-05-14T08:41:03.318Z,98563.34
2023-05-14T08:44:15.414Z,98568.53
2023-05-14T08:47:25.119Z,98560.38
2023-05-14T08:50:32.923Z,98563.06
2023-05-14T08:53:40.593Z,98547.00
2023-05-14T08:56:51.235Z,98544.22
2023-05-14T08:59:59.003Z,98547.50
2023-05-14T09:03:06.943Z,98537.78
2023-05-14T09:06:17.119Z,98534.81
2023-05-14T09:09:24.054Z,98532.13
2023-05-14T09:12:33.457Z,98535.75
2023-05-14T09:15:42.302Z,98534.34
2023-05-14T09:18:49.024Z,98520.53
2023-05-14T09:21:55.726Z,98524.06
2023-05-14T09:25:09.626Z,98523.28
2023-05-14T09:28:21.573Z,98520.91
2023-05-14T09:31:28.153Z,98517.75
2023-05-14T09:34:38.036Z,98528.78
2023-05-14T09:37:46.583Z,98513.19
2023-05-14T09:40:52.265Z,98513.72
2023-05-14T09:44:03.361Z,98513.19
2023-05-14T09:47:10.372Z,98508.13
2023-05-14T09:50:16.956Z,98510.22
2023-05-14T09:53:22.713Z,98503.47
2023-05-14T09:56:29.604Z,98506.69
2023-05-14T09:59:37.830Z,98502.59
2023-05-14T10:02:49.972Z,98490.78
2023-05-14T10:05:56.726Z,98490.78
2023-05-14T10:09:08.680Z,98476.69
2023-05-14T10:12:15.856Z,98477.50
2023-05-14T10:15:36.221Z,98473.16
2023-05-14T10:18:48.897Z,98463.94
2023-05-14T10:22:02.803Z,98454.53
2023-05-14T10:25:10.169Z,98452.91
2023-05-14T10:28:17.234Z,98464.06
2023-05-14T10:31:26.749Z,98456.91
2023-05-14T10:34:41.798Z,98450.19
2023-05-14T10:37:49.252Z,98444.34
2023-05-14T10:41:00.671Z,98453.53
2023-05-14T10:44:13.023Z,98440.25
2023-05-14T10:47:22.929Z,98444.91
2023-05-14T10:50:30.093Z,98433.47
2023-05-14T10:53:38.999Z,98433.66
2023-05-14T10:56:48.761Z,98439.16
2023-05-14T10:59:57.960Z,98442.09
2023-05-14T11:03:10.127Z,98447.47
2023-05-14T11:06:19.013Z,98437.19
2023-05-14T11:09:25.423Z,98435.28
2023-05-14T11:12:32.446Z,98433.47
2023-05-14T11:15:38.784Z,98432.25
2023-05-14T11:18:47.921Z,98420.47
2023-05-14T11:21:53.558Z,98416.94
2023-05-14T11:25:00.554Z,98425.72
2023-05-14T11:28:06.375Z,98422.84
2023-05-14T11:31:13.492Z,98428.25
2023-05-14T11:34:21.926Z,98427.75
2023-05-14T11:37:28.278Z,98421.66
2023-05-14T11:40:34.158Z,98419.47
2023-05-14T11:43:40.656Z,98414.63
2023-05-14T11:46:58.193Z,98417.59
2023-05-14T11:50:21.374Z,98406.56
2023-05-14T11:53:33.375Z,98396.09
2023-05-14T11:56:39.780Z,98399.59
2023-05-14T11:59:46.126Z,98390.72
2023-05-14T12:02:53.051Z,98375.97
2023-05-14T12:06:04.400Z,98376.00
2023-05-14T12:09:10.949Z,98378.00
2023-05-14T12:12:16.900Z,98375.16
2023-05-14T12:15:24.567Z,98371.81
2023-05-14T12:18:33.179Z,98368.75
2023-05-14T12:21:43.148Z,98361.91
2023-05-14T12:24:57.330Z,98358.38
2023-05-14T12:28:04.637Z,98338.19
2023-05-14T12:31:10.284Z,98344.19
2023-05-14T12:34:17.034Z,98338.28
2023-05-14T12:37:25.280Z,98329.84
2023-05-14T12:40:32.059Z,98325.56
2023-05-14T12:43:39.150Z,98333.44
2023-05-14T12:46:46.574Z,98320.00
2023-05-14T12:49:52.219Z,98317.03
2023-05-14T12:53:01.283Z,98315.94
2023-05-14T12:56:07.607Z,98317.56
2023-05-14T12:59:14.102Z,98306.72
2023-05-14T13:02:19.821Z,98301.34
2023-05-14T13:05:26.485Z,98305.00
2023-05-14T13:08:34.775Z,98308.22
2023-05-14T13:11:41.316Z,98300.31
2023-05-14T13:14:47.304Z,98299.94
2023-05-14T13:17:55.788Z,98295.31
2023-05-14T13:21:04.658Z,98298.28
2023-05-14T13:24:15.445Z,98304.69
2023-05-14T13:27:21.122Z,98284.34
2023-05-14T13:30:28.044Z,98272.53
2023-05-14T13:33:33.664Z,98274.31
2023-05-14T13:36:40.923Z,98274.13
2023-05-14T13:39:50.693Z,98267.19
2023-05-14T13:42:58.160Z,98261.19
2023-05-14T13:46:04.462Z,98257.53
2023-05-14T13:49:13.571Z,98246.53
2023-05-14T13:52:19.189Z,98233.16
2023-05-14T13:55:28.689Z,98217.06
2023-05-14T13:58:35.189Z,98204.13
2023-05-14T14:01:43.422Z,98218.06
2023-05-14T14:04:49.683Z,98227.44
2023-05-14T14:08:00.875Z,98222.78
2023-05-14T14:11:13.770Z,98215.88
2023-05-14T14:14:21.379Z,98207.59
2023-05-14T14:17:27.059Z,98197.91
2023-05-14T14:20:34.113Z,98200.03
2023-05-14T14:23:39.847Z,98186.88
2023-05-14T14:26:49.075Z,98183.56
2023-05-14T14:29:54.887Z,98183.47
2023-05-14T14:33:01.723Z,98187.41
2023-05-14T14:36:08.691Z,98187.63
2023-05-14T14:39:15.259Z,98184.56
2023-05-14T14:42:23.498Z,98173.19
2023-05-14T14:45:32.712Z,98167.53
2023-05-14T14:48:41.695Z,98164.19
2023-05-14T14:51:48.548Z,98157.72
2023-05-14T14:54:55.604Z,98137.09
2023-05-14T14:58:04.907Z,98134.97
2023-05-14T15:01:11.012Z,98133.28
2023-05-14T15:04:17.555Z,98126.75
2023-05-14T15:09:26.630Z,98125.28
2023-05-14T15:12:33.198Z,98121.41
2023-05-14T15:15:39.856Z,98123.50
2023-05-14T15:18:46.766Z,98129.25
2023-05-14T15:21:52.751Z,98122.41
2023-05-14T15:25:04.246Z,98125.09
2023-05-14T15:28:10.595Z,98119.09
2023-05-14T15:31:17.653Z,98118.69
2023-05-14T15:34:23.495Z,98115.41
2023-05-14T15:37:31.485Z,98109.41
2023-05-14T15:40:40.566Z,98115.09
2023-05-14T15:43:46.974Z,98100.66
2023-05-14T15:46:52.927Z,98109.97
2023-05-14T15:49:59.475Z,98106.50
2023-05-14T15:53:05.877Z,98097.13
2023-05-14T15:56:15.024Z,98089.03
2023-05-14T15:59:22.186Z,98087.13
2023-05-14T16:02:30.702Z,98077.41
2023-05-14T16:05:37.328Z,98072.00
2023-05-14T16:08:45.049Z,98075.88
2023-05-14T16:11:53.391Z,98073.38
2023-05-14T16:15:00.231Z,98069.91
2023-05-14T16:18:06.148Z,98073.16
2023-05-14T16:21:12.541Z,98064.88
2023-05-14T16:24:20.913Z,98072.81
2023-05-14T16:27:30.078Z,98069.03
2023-05-14T16:30:36.085Z,98066.91
2023-05-14T16:33:42.545Z,98067.28
2023-05-14T16:36:48.307Z,98063.13
2023-05-14T16:39:55.188Z,98053.28
2023-05-14T16:43:03.609Z,98053.28
2023-05-14T16:46:10.704Z,98055.94
2023-05-14T16:49:17.063Z,98055.59
2023-05-14T16:52:23.495Z,98062.47
2023-05-14T16:55:29.263Z,98052.25
2023-05-14T16:58:38.254Z,98049.03
2023-05-14T17:01:44.425Z,98031.72
2023-05-14T17:04:50.899Z,98048.16
2023-05-14T17:07:57.079Z,98040.84
2023-05-14T17:11:05.994Z,98038.81
2023-05-14T17:14:14.352Z,98028.66
2023-05-14T17:17:21.417Z,98026.72
2023-05-14T17:20:27.618Z,98027.66
2023-05-14T17:23:36.826Z,98030.81
2023-05-14T17:26:42.603Z,98026.44
2023-05-14T17:29:52.040Z,98033.47
2023-05-14T17:32:57.792Z,98031.84
2023-05-14T17:36:04.417Z,98033.22
2023-05-14T17:39:10.027Z,98031.84
2023-05-14T17:42:16.840Z,98051.00
2023-05-14T17:45:25.510Z,98056.44
2023-05-14T17:48:32.163Z,98080.91
2023-05-14T17:51:38.715Z,98088.16
2023-05-14T17:54:45.162Z,98102.16
2023-05-14T17:57:50.995Z,98101.84
2023-05-14T18:00:59.948Z,98107.69
2023-05-14T18:04:05.807Z,98091.72
2023-05-14T18:07:12.322Z,98103.38
2023-05-14T18:10:17.984Z,98095.03
2023-05-14T18:13:24.446Z,98095.56
2023-05-14T18:16:33.686Z,98091.88
2023-05-14T18:19:41.131Z,98092.25
2023-05-14T18:22:46.710Z,98097.16
2023-05-14T18:25:53.854Z,98090.97
2023-05-14T18:29:01.359Z,98090.03
2023-05-14T18:32:11.309Z,98088.91
2023-05-14T18:35:17.243Z,98091.44
2023-05-14T18:38:23.597Z,98082.34
2023-05-14T18:41:29.380Z,98086.53
2023-05-14T18:44:35.756Z,98084.03
2023-05-14T18:47:44.480Z,98087.88
2023-05-14T18:50:51.353Z,98083.78
2023-05-14T18:53:57.069Z,98086.09
2023-05-14T18:57:04.221Z,98089.56
2023-05-14T19:00:12.172Z,98086.13
2023-05-14T19:03:22.082Z,98091.38
2023-05-14T19:06:28.938Z,98098.88
2023-05-14T19:09:35.577Z,98099.25
2023-05-14T19:12:41.406Z,98106.16
2023-05-14T19:15:47.897Z,98117.03
2023-05-14T19:18:56.452Z,98116.88
2023-05-14T19:22:03.109Z,98117.53
2023-05-14T19:25:11.407Z,98117.88
2023-05-14T19:28:20.047Z,98116.13
2023-05-14T19:31:26.031Z,98109.94
2023-05-14T19:34:35.152Z,98119.88
2023-05-14T19:37:40.847Z,98122.38
2023-05-14T19:40:47.149Z,98125.47
2023-05-14T19:43:52.842Z,98129.66
2023-05-14T19:46:59.392Z,98132.97
2023-05-14T19:50:09.313Z,98126.06
2023-05-14T19:53:15.995Z,98117.53
2023-05-14T19:56:21.769Z,98136.34
2023-05-14T19:59:30.072Z,98125.75
2023-05-14T20:02:35.790Z,98120.44
2023-05-14T20:05:45.428Z,98121.06
2023-05-14T20:08:51.732Z,98121.31
2023-05-14T20:11:58.229Z,98111.56
2023-05-14T20:15:04.479Z,98102.78
2023-05-14T20:18:11.050Z,98098.91
2023-05-14T20:21:20.879Z,98085.41
2023-05-14T20:24:27.308Z,98072.59
2023-05-14T20:27:33.524Z,98060.34
2023-05-14T20:30:40.405Z,98046.28
2023-05-14T20:33:46.275Z,98042.47
2023-05-14T20:36:55.290Z,98027.81
2023-05-14T20:40:01.232Z,98017.41
2023-05-14T20:43:07.964Z,97995.22
2023-05-14T20:46:13.734Z,97986.91
2023-05-14T20:49:22.250Z,97979.41
2023-05-14T20:52:30.647Z,97974.38
2023-05-14T20:55:37.482Z,97966.41
2023-05-14T20:58:43.173Z,97947.88
2023-05-14T21:01:49.582Z,97936.88
2023-05-14T21:04:55.246Z,97926.25
2023-05-14T21:08:04.231Z,97921.19
2023-05-14T21:11:10.305Z,97916.47
2023-05-14T21:14:16.764Z,97912.84
2023-05-14T21:17:22.467Z,97902.63
2023-05-14T21:20:29.108Z,97899.38
2023-05-14T21:23:38.033Z,97898.38
2023-05-14T21:26:44.442Z,97897.63
2023-05-14T21:29:50.170Z,97890.47
2023-05-14T21:32:56.705Z,97899.84
2023-05-14T21:36:02.825Z,97896.59
2023-05-14T21:39:11.903Z,97901.66
2023-05-14T21:42:17.958Z,97892.53
2023-05-14T21:45:24.295Z,97881.72
2023-05-14T21:48:30.072Z,97872.31
2023-05-14T21:51:36.694Z,97871.50
2023-05-14T21:54:45.097Z,97855.59
2023-05-14T21:57:51.905Z,97852.50
2023-05-14T22:00:57.999Z,97845.22
2023-05-14T22:04:04.431Z,97844.41
2023-05-14T22:07:10.271Z,97841.78
2023-05-14T22:10:19.991Z,97851.69
2023-05-14T22:13:26.025Z,97845.00
2023-05-14T22:16:32.721Z,97840.50
2023-05-14T22:19:38.694Z,97826.31
2023-05-14T22:22:45.084Z,97818.72
2023-05-14T22:25:53.475Z,97809.94
2023-05-14T22:29:00.780Z,97806.94
2023-05-14T22:32:07.738Z,97809.59
2023-05-14T22:35:14.541Z,97815.53
2023-05-14T22:38:20.235Z,97812.09
2023-05-14T22:41:29.456Z,97816.78
2023-05-14T22:44:35.812Z,97816.19
2023-05-14T22:47:42.291Z,97801.59
2023-05-14T22:50:47.952Z,97804.25
2023-05-14T22:53:54.307Z,97797.75
2023-05-14T22:57:03.464Z,97775.34
2023-05-14T23:00:12.012Z,97765.97
2023-05-14T23:03:17.743Z,97756.56
2023-05-14T23:06:24.292Z,97752.50
2023-05-14T23:09:29.898Z,97751.38
2023-05-14T23:12:38.955Z,97753.84
2023-05-14T23:15:45.684Z,97741.88
2023-05-14T23:18:52.116Z,97717.97
2023-05-14T23:21:58.541Z,97731.56
2023-05-14T23:25:05.481Z,97735.25
2023-05-14T23:28:14.524Z,97740.91
2023-05-14T23:31:20.860Z,97740.53
2023-05-14T23:34:27.302Z,97736.66
2023-05-14T23:37:33.867Z,97730.31
2023-05-14T23:40:40.240Z,97730.28
2023-05-14T23:43:49.217Z,97732.28
2023-05-14T23:46:55.087Z,97708.25
2023-05-14T23:50:03.686Z,97708.56
2023-05-14T23:53:09.395Z,97707.75
2023-05-14T23:56:15.886Z,97663.75
2023-05-14T23:59:24.156Z,97685.06
